createdAt,value
2023-04-29T00:00:31.448Z,7.72
2023-04-29T00:03:18.596Z,10.48
2023-04-29T00:05:59.156Z,12.55
2023-04-29T00:09:04.256Z,12.55
2023-04-29T00:11:42.614Z,11.43
2023-04-29T00:14:25.476Z,9.15
2023-04-29T00:17:06.293Z,8.32
2023-04-29T00:19:46.532Z,9.90
2023-04-29T00:22:24.834Z,8.43
2023-04-29T00:25:21.565Z,10.32
2023-04-29T00:28:06.373Z,11.15
2023-04-29T00:30:49.953Z,9.30
2023-04-29T00:33:35.250Z,10.55
2023-04-29T00:36:26.513Z,10.52
2023-04-29T00:39:02.307Z,10.18
2023-04-29T00:41:58.224Z,10.90
2023-04-29T00:44:38.183Z,12.65
2023-04-29T00:47:25.702Z,12.77
2023-04-29T00:50:08.857Z,14.67
2023-04-29T00:53:06.617Z,12.45
2023-04-29T00:55:44.334Z,12.20
2023-04-29T00:58:33.934Z,11.27
2023-04-29T01:01:18.714Z,14.20
2023-04-29T01:04:08.893Z,14.70
2023-04-29T01:06:58.175Z,12.90
2023-04-29T01:09:50.897Z,15.25
2023-04-29T01:12:35.122Z,12.63
2023-04-29T01:15:20.970Z,13.23
2023-04-29T01:18:21.934Z,16.10
2023-04-29T01:21:00.223Z,16.17
2023-04-29T01:23:41.559Z,14.98
2023-04-29T01:26:21.316Z,15.27
2023-04-29T01:29:16.840Z,14.70
2023-04-29T01:32:02.773Z,13.97
2023-04-29T01:34:46.401Z,12.93
2023-04-29T01:37:52.081Z,15.52
2023-04-29T01:40:38.135Z,19.42
2023-04-29T01:43:20.908Z,18.90
2023-04-29T01:46:01.780Z,13.80
2023-04-29T01:48:38.970Z,19.92
2023-04-29T01:51:17.567Z,16.60
2023-04-29T01:54:10.259Z,18.63
2023-04-29T01:56:49.022Z,19.83
2023-04-29T01:59:50.475Z,16.15
2023-04-29T02:02:53.257Z,18.17
2023-04-29T02:05:54.637Z,17.75
2023-04-29T02:08:29.887Z,14.20
2023-04-29T02:11:14.333Z,16.93
2023-04-29T02:16:53.853Z,11.75
2023-04-29T02:19:33.454Z,14.53
2023-04-29T02:22:09.257Z,15.53
2023-04-29T02:24:51.922Z,16.15
2023-04-29T02:27:28.721Z,15.23
2023-04-29T02:30:12.762Z,18.27
2023-04-29T02:32:55.348Z,17.52
2023-04-29T02:35:39.556Z,14.65
2023-04-29T02:38:26.262Z,15.50
2023-04-29T02:41:02.088Z,14.57
2023-04-29T02:43:37.818Z,14.45
2023-04-29T02:46:19.231Z,16.70
2023-04-29T02:48:56.265Z,21.75
2023-04-29T02:51:35.194Z,15.70
2023-04-29T02:54:12.010Z,16.03
2023-04-29T02:56:50.492Z,19.10
2023-04-29T03:02:08.103Z,15.65
2023-04-29T03:04:50.193Z,19.70
2023-04-29T03:07:30.785Z,18.15
2023-04-29T03:10:09.027Z,16.95
2023-04-29T03:12:57.060Z,16.40
2023-04-29T03:15:32.919Z,17.85
2023-04-29T03:18:13.755Z,22.25
2023-04-29T03:20:50.724Z,15.18
2023-04-29T03:23:28.566Z,18.25
2023-04-29T03:26:16.124Z,15.60
2023-04-29T03:28:57.061Z,16.55
2023-04-29T03:31:29.543Z,14.35
2023-04-29T03:36:44.590Z,15.00
2023-04-29T03:39:23.655Z,15.65
2023-04-29T03:42:00.492Z,13.27
2023-04-29T03:44:40.667Z,16.05
2023-04-29T03:47:18.585Z,16.33
2023-04-29T03:53:33.436Z,15.25
2023-04-29T03:57:14.105Z,14.48
2023-04-29T04:00:03.135Z,15.35
2023-04-29T04:09:52.124Z,14.10
2023-04-29T04:26:05.318Z,15.00
2023-04-29T04:35:36.773Z,12.60
2023-04-29T04:38:20.486Z,16.05
2023-04-29T04:41:43.924Z,14.50
2023-04-29T04:54:46.698Z,19.45
2023-04-29T04:58:13.098Z,13.85
2023-04-29T05:11:17.180Z,13.68
2023-04-29T05:14:22.274Z,14.25
2023-04-29T05:17:11.746Z,11.75
2023-04-29T05:20:24.618Z,17.33
2023-04-29T05:23:34.648Z,12.93
2023-04-29T05:26:40.211Z,12.68
2023-04-29T05:33:31.730Z,11.95
2023-04-29T05:37:06.416Z,12.90
2023-04-29T07:10:06.986Z,15.15
2023-04-29T07:16:08.267Z,16.27
2023-04-29T07:39:53.167Z,15.00
2023-04-29T07:55:40.020Z,15.70
2023-04-29T07:59:07.226Z,20.15
2023-04-29T08:20:58.913Z,19.70
2023-04-29T08:34:49.064Z,21.05
2023-04-29T08:37:46.924Z,21.90
2023-04-29T08:46:59.582Z,22.33
2023-04-29T14:07:14.650Z,3.13
2023-04-29T15:07:58.490Z,8.18
2023-04-29T15:14:11.205Z,10.30
2023-04-29T15:19:44.063Z,5.07
2023-04-29T15:22:24.058Z,8.73
2023-04-29T15:25:13.758Z,8.65
2023-04-29T15:27:51.666Z,11.98
2023-04-29T15:30:34.878Z,10.15
2023-04-29T15:33:27.613Z,11.05
2023-04-29T15:36:03.933Z,10.70
2023-04-29T15:38:43.331Z,12.95
2023-04-29T15:41:38.908Z,11.38
2023-04-29T15:44:18.392Z,10.35
2023-04-29T15:46:56.693Z,12.18
2023-04-29T15:49:52.528Z,12.75
2023-04-29T15:52:38.685Z,10.50
2023-04-29T15:55:13.656Z,12.10
2023-04-29T15:58:33.968Z,11.60
2023-04-29T16:02:03.136Z,11.88
2023-04-29T16:07:56.241Z,12.63
2023-04-29T16:20:28.076Z,9.93
2023-04-29T16:23:11.327Z,10.85
2023-04-29T16:25:48.717Z,14.50
2023-04-29T16:28:39.549Z,12.02
2023-04-29T16:31:26.490Z,14.30
2023-04-29T16:34:11.651Z,16.92
2023-04-29T16:37:05.677Z,15.10
2023-04-29T16:39:58.706Z,16.00
2023-04-29T16:46:12.880Z,15.17
2023-04-29T16:52:46.635Z,14.25
2023-04-29T17:05:22.589Z,12.60
2023-04-29T17:57:13.450Z,10.40
2023-04-29T18:03:23.187Z,11.07
2023-04-29T18:16:03.735Z,12.27
2023-04-29T18:25:53.941Z,17.70
2023-04-29T18:28:56.811Z,21.67
2023-04-29T18:32:01.293Z,34.58
2023-04-29T18:34:50.335Z,42.20
2023-04-29T18:37:47.404Z,40.83
2023-04-29T18:41:06.576Z,39.78
2023-04-29T18:53:12.355Z,45.00
2023-04-29T18:56:20.582Z,44.70
2023-04-29T19:22:55.066Z,45.67
2023-04-29T19:29:56.739Z,46.30
2023-04-29T21:04:41.883Z,42.72
2023-04-29T21:07:25.277Z,19.10
